Time;durP1;ratioP1;P1;durP2;ratioP2;P2;SDS_P1;SDS_P2;PMS_P1;PMS_P2;Temp;Humidity;BMP_temperature;BMP_pressure;BME280_temperature;BME280_humidity;BME280_pressure;Samples;Min_cycle;Max_cycle;Signal;HPM_P1;HPM_P2
2023/01/05 00:02:15;;;;;;;0.90;0.90;;;12.50;1.00;;;;;;6270631;23;20011;-78
2023/01/05 00:04:46;;;;;;;0.65;0.65;;;12.40;1.00;;;;;;6265207;22;20082;-79
2023/01/05 00:07:17;;;;;;;0.50;0.50;;;12.40;1.00;;;;;;6269592;23;19995;-78
2023/01/05 00:09:50;;;;;;;2.28;0.80;;;12.40;1.00;;;;;;6270118;23;20419;-77
2023/01/05 00:23:47;;;;;;;1.00;1.00;;;12.20;1.00;;;;;;6254482;23;20041;-77
2023/01/05 00:26:20;;;;;;;0.97;0.97;;;12.20;13.00;;;;;;6268856;23;20005;-77
2023/01/05 00:28:53;;;;;;;0.80;0.80;;;12.20;31.90;;;;;;6244458;23;20214;-76
2023/01/05 00:31:24;;;;;;;0.73;0.73;;;12.20;40.20;;;;;;6267180;23;20009;-76
2023/01/05 00:33:56;;;;;;;0.88;0.88;;;12.10;52.50;;;;;;6269137;23;20609;-77
2023/01/05 00:36:29;;;;;;;0.65;0.65;;;12.20;53.60;;;;;;6291471;23;19990;-76
2023/01/05 00:39:00;;;;;;;0.70;0.70;;;12.10;61.60;;;;;;6268639;23;20038;-76
2023/01/05 00:41:41;;;;;;;0.60;0.60;;;12.10;60.60;;;;;;6268626;23;20050;-76
2023/01/05 00:44:13;;;;;;;0.80;0.80;;;12.10;84.60;;;;;;6268981;23;20054;-76
2023/01/05 00:46:44;;;;;;;0.70;0.70;;;12.00;96.50;;;;;;6267908;23;20003;-77
2023/01/05 00:49:15;;;;;;;0.70;0.70;;;11.90;99.70;;;;;;6268663;23;19995;-77
2023/01/05 00:51:49;;;;;;;0.80;0.80;;;12.00;99.90;;;;;;6268725;23;19995;-76
2023/01/05 00:54:23;;;;;;;1.08;0.80;;;12.10;86.50;;;;;;6266799;23;20003;-76
2023/01/05 00:56:54;;;;;;;0.98;0.98;;;12.20;68.40;;;;;;6291330;23;20001;-77
2023/01/05 00:59:28;;;;;;;1.00;0.80;;;12.20;67.90;;;;;;6267834;23;20042;-76
2023/01/05 01:01:59;;;;;;;0.75;0.75;;;12.20;68.60;;;;;;6362802;23;20389;-68
2023/01/05 01:04:34;;;;;;;0.70;0.70;;;12.30;34.80;;;;;;6410661;23;20021;-68
2023/01/05 01:07:13;;;;;;;0.73;0.73;;;12.30;33.80;;;;;;6394329;23;20048;-67
2023/01/05 01:09:44;;;;;;;0.50;0.50;;;12.40;21.50;;;;;;6393387;23;20006;-66
2023/01/05 01:12:18;;;;;;;0.77;0.77;;;12.40;11.80;;;;;;6420441;23;20047;-67
2023/01/05 01:14:49;;;;;;;0.82;0.82;;;12.40;20.80;;;;;;6394352;23;20007;-67
2023/01/05 01:17:22;;;;;;;0.80;0.80;;;12.50;6.20;;;;;;6394308;23;20052;-67
2023/01/05 01:19:53;;;;;;;0.75;0.75;;;12.50;13.50;;;;;;6444445;23;20067;-66
2023/01/05 01:22:28;;;;;;;0.77;0.77;;;12.50;19.60;;;;;;6393606;23;20009;-65
2023/01/05 01:25:00;;;;;;;0.70;0.70;;;12.50;31.30;;;;;;6430517;23;20050;-66
2023/01/05 01:27:33;;;;;;;0.80;0.80;;;12.50;45.30;;;;;;6429936;23;20004;-66
2023/01/05 01:30:11;;;;;;;0.90;0.90;;;12.60;55.10;;;;;;6443096;23;20407;-64
2023/01/05 01:32:49;;;;;;;0.70;0.70;;;12.50;70.40;;;;;;6418654;23;19997;-63
2023/01/05 01:35:21;;;;;;;0.63;0.63;;;12.60;57.00;;;;;;6420094;23;20381;-64
2023/01/05 01:37:52;;;;;;;0.70;0.70;;;12.60;66.40;;;;;;6419392;23;20124;-66
2023/01/05 01:40:23;;;;;;;0.60;0.60;;;12.60;91.90;;;;;;6418974;23;19997;-67
2023/01/05 01:42:57;;;;;;;0.60;0.60;;;12.60;83.20;;;;;;6444734;23;20479;-67
2023/01/05 01:45:31;;;;;;;0.90;0.90;;;12.60;92.80;;;;;;6394812;23;20003;-65
2023/01/05 01:48:03;;;;;;;0.80;0.80;;;12.50;99.90;;;;;;6393158;23;20273;-66
2023/01/05 01:50:40;;;;;;;0.60;0.60;;;12.50;96.40;;;;;;6393419;23;19996;-65
2023/01/05 01:53:19;;;;;;;0.70;0.70;;;12.50;81.60;;;;;;6421959;23;20052;-64
2023/01/05 01:55:51;;;;;;;0.50;0.50;;;12.60;53.80;;;;;;6443707;23;20165;-66
2023/01/05 01:58:27;;;;;;;0.65;0.65;;;12.60;43.70;;;;;;6421403;23;20040;-66
2023/01/05 02:01:01;;;;;;;;;;;12.60;32.50;;;;;;6393895;23;20044;-65
2023/01/05 02:03:36;;;;;;;0.80;0.80;;;12.70;29.30;;;;;;6441628;22;19916;-68
2023/01/05 02:06:07;;;;;;;0.65;0.65;;;12.70;23.80;;;;;;6429481;23;20573;-65
2023/01/05 02:08:39;;;;;;;0.90;0.80;;;12.70;20.40;;;;;;6421551;23;20010;-68
2023/01/05 02:11:38;;;;;;;0.70;0.70;;;12.70;27.40;;;;;;6418139;23;20007;-65
2023/01/05 02:14:39;;;;;;;0.80;0.80;;;12.70;21.20;;;;;;6419316;23;20674;-66
2023/01/05 02:17:16;;;;;;;0.60;0.60;;;12.70;12.10;;;;;;6393203;23;19996;-67
2023/01/05 02:20:09;;;;;;;0.77;0.77;;;12.70;26.30;;;;;;6419571;23;19999;-68
2023/01/05 02:23:01;;;;;;;0.57;0.57;;;12.70;4.00;;;;;;6420957;23;20000;-65
2023/01/05 02:25:51;;;;;;;0.60;0.60;;;12.70;1.00;;;;;;6394884;23;19992;-66
2023/01/05 02:28:25;;;;;;;0.63;0.63;;;12.70;1.00;;;;;;6420048;23;20173;-66
2023/01/05 02:31:08;;;;;;;0.70;0.70;;;12.70;1.00;;;;;;6393587;23;19996;-65
2023/01/05 02:33:54;;;;;;;0.43;0.43;;;12.80;1.00;;;;;;6393248;23;20261;-65
2023/01/05 02:36:58;;;;;;;0.50;0.50;;;12.80;1.00;;;;;;6394471;23;20027;-66
2023/01/05 02:39:34;;;;;;;0.60;0.60;;;12.90;1.00;;;;;;6435328;23;20408;-67
2023/01/05 02:42:25;;;;;;;0.75;0.75;;;12.90;1.00;;;;;;6418094;23;20496;-67
2023/01/05 02:45:00;;;;;;;0.60;0.60;;;12.90;1.00;;;;;;6418590;23;20064;-66
2023/01/05 02:47:36;;;;;;;0.75;0.75;;;12.90;1.00;;;;;;6369833;23;20064;-67
2023/01/05 02:50:29;;;;;;;0.63;0.63;;;12.90;1.00;;;;;;6419422;23;20000;-67
2023/01/05 02:53:37;;;;;;;0.60;0.60;;;12.90;1.00;;;;;;6393750;23;19996;-66
2023/01/05 02:56:22;;;;;;;0.57;0.57;;;12.90;1.00;;;;;;6418336;23;20001;-67
2023/01/05 02:59:25;;;;;;;0.70;0.70;;;12.90;1.00;;;;;;6420223;23;20234;-67
2023/01/05 03:02:07;;;;;;;1.58;0.93;;;13.00;1.00;;;;;;6418268;23;20026;-68
2023/01/05 03:04:46;;;;;;;0.90;0.90;;;13.00;1.00;;;;;;6409210;23;20009;-66
2023/01/05 03:07:27;;;;;;;0.50;0.50;;;13.00;1.00;;;;;;6418243;23;20003;-67
2023/01/05 03:13:39;;;;;;;1.02;1.02;;;12.90;1.00;;;;;;6420563;23;20048;-65
2023/01/05 03:15:50;;;;;;;0.90;0.90;;;12.90;1.00;;;;;;6421155;23;20399;-67
2023/01/05 03:18:28;;;;;;;0.63;0.63;;;12.90;1.00;;;;;;6421015;23;20543;-65
2023/01/05 03:21:02;;;;;;;0.93;0.88;;;12.90;1.00;;;;;;6418747;23;20048;-67
2023/01/05 03:35:31;;;;;;;0.73;0.73;;;12.90;1.00;;;;;;6418798;23;20000;-64
2023/01/05 03:38:33;;;;;;;0.60;0.60;;;12.80;1.00;;;;;;6419181;23;20107;-67
2023/01/05 03:41:11;;;;;;;1.08;0.95;;;12.70;1.00;;;;;;6420054;23;20044;-65
2023/01/05 03:43:43;;;;;;;0.70;0.70;;;12.60;1.00;;;;;;6418866;23;19996;-66
2023/01/05 03:46:20;;;;;;;0.60;0.60;;;12.60;1.00;;;;;;6419788;23;20092;-68
2023/01/05 03:48:51;;;;;;;0.80;0.80;;;12.50;1.00;;;;;;6394783;23;20002;-67
2023/01/05 03:51:22;;;;;;;1.17;0.73;;;12.40;1.00;;;;;;6393867;23;20184;-67
2023/01/05 03:53:54;;;;;;;0.73;0.73;;;12.40;1.00;;;;;;6431373;23;20044;-67
2023/01/05 03:56:25;;;;;;;0.60;0.60;;;12.50;1.00;;;;;;6421494;23;20004;-66
2023/01/05 03:58:57;;;;;;;0.52;0.52;;;12.50;1.00;;;;;;6421934;23;20041;-67
2023/01/05 04:01:31;;;;;;;0.75;0.75;;;12.40;1.00;;;;;;6396200;23;20324;-68
2023/01/05 04:04:04;;;;;;;0.60;0.60;;;12.40;1.00;;;;;;6420338;23;20333;-65
2023/01/05 04:06:35;;;;;;;0.50;0.50;;;12.40;1.00;;;;;;6407143;22;20020;-68
2023/01/05 04:09:09;;;;;;;0.90;0.90;;;12.40;1.00;;;;;;6420870;23;20420;-66
2023/01/05 04:11:40;;;;;;;0.70;0.70;;;12.30;1.00;;;;;;6394960;23;20532;-67
2023/01/05 04:14:14;;;;;;;0.73;0.73;;;12.30;1.00;;;;;;6396623;23;20387;-67
2023/01/05 04:16:45;;;;;;;0.75;0.75;;;12.20;1.00;;;;;;6432174;23;20204;-67
2023/01/05 04:19:19;;;;;;;1.20;0.90;;;12.20;1.00;;;;;;6422771;23;19988;-66
2023/01/05 04:21:52;;;;;;;0.70;0.70;;;12.20;1.00;;;;;;6396763;23;20011;-67
2023/01/05 04:24:23;;;;;;;0.80;0.80;;;12.30;1.00;;;;;;6397026;23;20602;-66
2023/01/05 04:26:58;;;;;;;0.80;0.80;;;12.30;1.00;;;;;;6445902;23;20006;-66
2023/01/05 04:29:30;;;;;;;0.60;0.60;;;12.30;1.00;;;;;;6370256;23;20368;-66
2023/01/05 04:32:01;;;;;;;0.50;0.50;;;12.30;1.00;;;;;;6445214;23;20001;-67
2023/01/05 04:34:40;;;;;;;0.88;0.60;;;12.30;1.00;;;;;;6422200;23;20043;-68
2023/01/05 04:37:11;;;;;;;1.10;1.10;;;12.30;1.00;;;;;;6419635;23;20007;-68
2023/01/05 04:39:42;;;;;;;0.60;0.60;;;12.50;1.00;;;;;;6419058;23;19992;-67
2023/01/05 04:42:16;;;;;;;0.70;0.70;;;12.50;1.00;;;;;;6420922;23;19985;-67
2023/01/05 04:44:47;;;;;;;0.60;0.60;;;12.40;1.00;;;;;;6393988;23;20061;-67
2023/01/05 04:47:24;;;;;;;0.60;0.60;;;12.40;1.00;;;;;;6446186;22;20000;-66
2023/01/05 04:49:58;;;;;;;0.95;0.70;;;12.50;1.00;;;;;;6394449;23;20006;-65
2023/01/05 04:52:34;;;;;;;1.05;0.63;;;12.50;1.00;;;;;;6394314;23;20303;-68
2023/01/05 04:55:08;;;;;;;1.65;0.60;;;12.60;1.00;;;;;;6419188;23;19993;-66
2023/01/05 04:57:40;;;;;;;0.70;0.70;;;12.50;1.00;;;;;;6426377;23;20001;-69
2023/01/05 05:00:11;;;;;;;0.80;0.80;;;12.50;1.00;;;;;;6445291;23;20022;-67
2023/01/05 05:02:42;;;;;;;0.80;0.80;;;12.50;1.00;;;;;;6443787;22;20001;-66
2023/01/05 05:05:19;;;;;;;0.68;0.68;;;12.50;1.00;;;;;;6410902;23;20018;-65
2023/01/05 05:07:52;;;;;;;0.60;0.60;;;12.50;1.00;;;;;;6399448;23;20003;-66
2023/01/05 05:10:27;;;;;;;0.70;0.70;;;12.50;1.00;;;;;;6413597;23;20011;-66
2023/01/05 05:12:58;;;;;;;0.80;0.80;;;12.50;1.00;;;;;;6438661;23;20065;-67
2023/01/05 05:15:32;;;;;;;0.80;0.75;;;12.50;1.00;;;;;;6390934;23;19993;-66
2023/01/05 05:18:12;;;;;;;0.90;0.90;;;12.30;1.00;;;;;;6413901;23;20026;-68
2023/01/05 05:20:49;;;;;;;0.80;0.80;;;12.30;1.00;;;;;;6387265;23;20000;-66
2023/01/05 05:23:20;;;;;;;0.90;0.77;;;12.30;1.00;;;;;;6388943;23;20004;-68
2023/01/05 05:25:54;;;;;;;0.60;0.60;;;12.30;1.00;;;;;;6413283;23;20009;-64
2023/01/05 05:28:31;;;;;;;0.70;0.70;;;12.30;1.00;;;;;;6413757;23;20001;-66
2023/01/05 05:31:07;;;;;;;0.47;0.47;;;12.40;1.00;;;;;;6388024;23;20460;-66
2023/01/05 05:33:40;;;;;;;0.50;0.50;;;12.40;1.00;;;;;;6437473;23;20003;-68
2023/01/05 05:36:16;;;;;;;0.47;0.47;;;12.40;1.00;;;;;;6400419;23;20048;-65
2023/01/05 05:38:50;;;;;;;0.77;0.77;;;12.60;1.00;;;;;;6412318;23;20283;-69
2023/01/05 05:41:24;;;;;;;0.85;0.85;;;12.70;1.00;;;;;;6412054;23;20001;-65
2023/01/05 05:43:59;;;;;;;0.68;0.68;;;12.60;1.00;;;;;;6413075;23;20005;-67
2023/01/05 05:46:31;;;;;;;0.55;0.55;;;12.60;1.00;;;;;;6413557;23;20005;-68
2023/01/05 05:49:03;;;;;;;0.70;0.70;;;12.60;1.00;;;;;;6413957;23;19997;-67
2023/01/05 05:51:37;;;;;;;0.73;0.60;;;12.60;1.00;;;;;;6436752;23;20001;-66
2023/01/05 05:54:09;;;;;;;0.75;0.75;;;12.60;1.00;;;;;;6412069;23;20019;-67
2023/01/05 05:56:40;;;;;;;0.70;0.70;;;12.60;1.00;;;;;;6413497;23;19993;-66
2023/01/05 05:59:12;;;;;;;0.88;0.60;;;12.70;1.00;;;;;;6437081;22;20001;-68
2023/01/05 06:01:43;;;;;;;0.70;0.70;;;12.60;1.00;;;;;;6389630;23;20392;-67
2023/01/05 06:04:17;;;;;;;0.60;0.60;;;12.60;1.00;;;;;;6398968;22;19997;-64
2023/01/05 06:06:50;;;;;;;0.90;0.90;;;12.60;1.00;;;;;;6411925;23;19997;-64
2023/01/05 06:09:23;;;;;;;1.08;0.70;;;12.60;1.00;;;;;;6412326;23;20568;-66
2023/01/05 06:11:57;;;;;;;1.63;1.53;;;12.60;1.00;;;;;;6411876;23;19993;-67
2023/01/05 06:14:29;;;;;;;0.80;0.80;;;12.70;1.00;;;;;;6412858;23;19997;-69
2023/01/05 06:17:02;;;;;;;4.85;0.73;;;12.70;1.00;;;;;;6411508;23;20361;-66
2023/01/05 06:19:33;;;;;;;0.93;0.93;;;12.80;1.00;;;;;;6387715;23;19997;-67
2023/01/05 06:22:05;;;;;;;0.60;0.60;;;12.70;1.00;;;;;;6387502;23;20564;-65
2023/01/05 06:24:36;;;;;;;0.88;0.88;;;12.80;1.00;;;;;;6387788;23;20003;-66
2023/01/05 06:27:07;;;;;;;0.60;0.60;;;12.80;1.00;;;;;;6448998;23;19997;-65
2023/01/05 06:29:41;;;;;;;0.68;0.68;;;12.80;1.00;;;;;;6414143;23;20015;-68
2023/01/05 06:32:14;;;;;;;0.73;0.73;;;12.80;1.00;;;;;;6409297;23;20001;-66
2023/01/05 06:34:50;;;;;;;0.80;0.80;;;12.80;1.00;;;;;;6387638;23;20011;-67
2023/01/05 06:37:23;;;;;;;0.90;0.90;;;12.80;1.00;;;;;;6412220;23;20011;-67
2023/01/05 06:39:57;;;;;;;0.80;0.80;;;12.90;1.00;;;;;;6411305;23;20387;-66
2023/01/05 06:42:34;;;;;;;0.93;0.93;;;13.00;1.00;;;;;;6412639;23;20183;-66
2023/01/05 06:45:06;;;;;;;0.60;0.60;;;12.90;1.00;;;;;;6412125;23;20005;-64
2023/01/05 06:47:41;;;;;;;1.08;0.80;;;12.80;1.00;;;;;;6387929;23;20473;-67
2023/01/05 06:50:20;;;;;;;0.57;0.57;;;12.90;1.00;;;;;;6412204;23;20004;-65
2023/01/05 06:52:54;;;;;;;0.57;0.57;;;12.90;1.00;;;;;;6388728;23;20423;-66
2023/01/05 06:55:25;;;;;;;0.80;0.80;;;12.90;1.00;;;;;;6385199;23;20009;-66
2023/01/05 06:57:56;;;;;;;0.60;0.60;;;12.90;1.00;;;;;;6412167;22;20003;-64
2023/01/05 07:00:36;;;;;;;3.40;0.80;;;12.80;1.00;;;;;;6412867;23;20000;-65
2023/01/05 07:03:12;;;;;;;0.80;0.80;;;12.80;1.00;;;;;;6388669;23;20027;-65
2023/01/05 07:05:45;;;;;;;0.60;0.60;;;12.90;1.00;;;;;;6402134;23;20285;-66
2023/01/05 07:08:16;;;;;;;0.80;0.80;;;12.90;1.00;;;;;;6387700;23;20581;-66
2023/01/05 07:10:47;;;;;;;0.88;0.70;;;12.80;1.00;;;;;;6438554;23;19993;-67
2023/01/05 07:13:19;;;;;;;0.63;0.63;;;12.80;1.00;;;;;;6389023;23;20345;-66
2023/01/05 07:15:50;;;;;;;2.33;0.80;;;12.80;1.00;;;;;;6412570;23;20005;-65
2023/01/05 07:18:24;;;;;;;0.57;0.57;;;12.90;1.00;;;;;;6389895;23;20027;-65
2023/01/05 07:20:55;;;;;;;0.75;0.75;;;12.90;1.00;;;;;;6434357;22;20018;-67
2023/01/05 07:23:31;;;;;;;0.75;0.50;;;13.00;1.00;;;;;;6426142;23;20390;-66
2023/01/05 07:26:09;;;;;;;0.68;0.65;;;13.00;1.00;;;;;;6411614;23;20196;-67
2023/01/05 07:28:41;;;;;;;0.88;0.88;;;13.10;1.00;;;;;;6389764;23;20007;-68
2023/01/05 07:31:12;;;;;;;0.60;0.60;;;13.10;1.00;;;;;;6388369;23;20058;-66
2023/01/05 07:33:43;;;;;;;0.60;0.60;;;13.20;1.00;;;;;;6438691;23;20482;-67
2023/01/05 07:36:15;;;;;;;0.90;0.65;;;13.30;1.00;;;;;;6452751;23;20000;-67
2023/01/05 07:38:47;;;;;;;0.80;0.80;;;13.30;1.00;;;;;;6414402;23;20007;-68
2023/01/05 07:41:18;;;;;;;0.65;0.65;;;13.30;1.00;;;;;;6388351;23;19989;-68
2023/01/05 07:43:52;;;;;;;0.70;0.70;;;13.30;1.00;;;;;;6390767;23;20001;-66
2023/01/05 07:46:26;;;;;;;0.70;0.70;;;13.40;1.00;;;;;;6389236;23;19997;-67
2023/01/05 07:48:58;;;;;;;0.85;0.85;;;13.50;1.00;;;;;;6411753;23;20223;-67
2023/01/05 07:51:35;;;;;;;0.70;0.70;;;13.60;1.00;;;;;;6413886;23;20063;-64
2023/01/05 07:54:07;;;;;;;0.73;0.73;;;13.60;1.00;;;;;;6390256;23;20072;-68
2023/01/05 07:56:38;;;;;;;0.80;0.80;;;13.70;1.00;;;;;;6387769;23;19997;-66
2023/01/05 07:59:11;;;;;;;0.90;0.70;;;13.70;1.00;;;;;;6412795;23;20000;-64
2023/01/05 08:01:42;;;;;;;2.08;0.60;;;13.70;1.00;;;;;;6388414;23;20001;-63
2023/01/05 08:04:14;;;;;;;1.48;0.75;;;13.70;1.00;;;;;;6400638;22;20020;-64
2023/01/05 08:06:45;;;;;;;0.68;0.68;;;13.70;1.00;;;;;;6387651;23;20007;-65
2023/01/05 08:12:06;;;;;;;1.15;0.73;;;13.80;1.00;;;;;;6436343;23;20008;-66
2023/01/05 08:14:38;;;;;;;0.77;0.77;;;13.80;1.00;;;;;;6388627;23;20012;-65
2023/01/05 08:17:12;;;;;;;0.80;0.80;;;13.80;1.00;;;;;;6413943;23;20004;-66
2023/01/05 08:19:43;;;;;;;0.60;0.60;;;13.80;1.00;;;;;;6363042;23;20029;-66
2023/01/05 08:22:17;;;;;;;0.80;0.80;;;13.80;1.00;;;;;;6438544;23;20424;-68
2023/01/05 08:24:48;;;;;;;1.15;1.05;;;13.90;1.00;;;;;;6413328;23;19997;-67
2023/01/05 08:27:22;;;;;;;0.80;0.77;;;13.80;1.00;;;;;;6438888;23;20463;-69
2023/01/05 08:29:54;;;;;;;0.77;0.77;;;13.90;1.00;;;;;;6412945;23;20109;-65
2023/01/05 08:32:25;;;;;;;0.65;0.65;;;13.90;1.00;;;;;;6390412;23;20012;-68
2023/01/05 08:34:57;;;;;;;1.02;0.63;;;13.90;1.00;;;;;;6376727;23;19997;-66
2023/01/05 08:37:31;;;;;;;0.70;0.70;;;13.90;1.00;;;;;;6412698;23;20008;-67
2023/01/05 08:40:05;;;;;;;2.38;0.80;;;13.90;1.00;;;;;;6362560;23;20000;-66
2023/01/05 08:42:38;;;;;;;0.80;0.80;;;13.90;1.00;;;;;;6412528;23;19996;-63
2023/01/05 08:45:09;;;;;;;0.80;0.80;;;13.90;1.00;;;;;;6413163;23;20011;-66
2023/01/05 08:47:41;;;;;;;1.08;0.98;;;13.90;1.00;;;;;;6413098;23;20524;-67
2023/01/05 08:50:13;;;;;;;0.80;0.80;;;13.90;1.00;;;;;;6438147;23;19993;-65
2023/01/05 08:52:46;;;;;;;0.93;0.93;;;13.80;1.00;;;;;;6399583;23;20001;-66
2023/01/05 08:55:18;;;;;;;1.37;1.27;;;13.80;1.00;;;;;;6438132;23;19997;-67
2023/01/05 08:57:51;;;;;;;0.70;0.70;;;13.80;1.00;;;;;;6411914;23;20001;-67
2023/01/05 09:00:23;;;;;;;0.60;0.60;;;13.80;1.00;;;;;;6388696;23;20045;-67
2023/01/05 09:03:00;;;;;;;0.80;0.80;;;13.80;1.00;;;;;;6412275;22;20001;-67
2023/01/05 09:05:31;;;;;;;0.73;0.60;;;13.80;1.00;;;;;;6403499;23;20017;-65
2023/01/05 09:08:05;;;;;;;1.23;0.70;;;13.80;1.00;;;;;;6388570;23;19997;-66
2023/01/05 09:10:36;;;;;;;0.73;0.73;;;13.80;1.00;;;;;;6387720;23;20008;-65
2023/01/05 09:13:08;;;;;;;0.70;0.70;;;13.70;1.00;;;;;;6411894;23;20319;-67
2023/01/05 09:15:40;;;;;;;0.70;0.70;;;13.70;1.00;;;;;;6412849;23;19997;-65
2023/01/05 09:18:11;;;;;;;0.80;0.80;;;13.70;1.00;;;;;;6412557;23;20290;-65
2023/01/05 09:20:42;;;;;;;0.60;0.60;;;13.70;1.00;;;;;;6438274;23;20001;-66
2023/01/05 09:23:15;;;;;;;0.60;0.60;;;13.80;1.00;;;;;;6447933;23;19989;-68
2023/01/05 09:25:49;;;;;;;0.68;0.68;;;13.70;1.00;;;;;;6390018;23;20048;-65
2023/01/05 09:28:20;;;;;;;0.52;0.52;;;13.70;1.00;;;;;;6407954;23;20013;-67
2023/01/05 09:30:51;;;;;;;0.80;0.80;;;13.70;1.00;;;;;;6412372;23;20008;-67
2023/01/05 09:33:27;;;;;;;0.90;0.85;;;13.80;1.00;;;;;;6410147;23;19993;-65
2023/01/05 09:35:58;;;;;;;0.70;0.70;;;13.80;1.00;;;;;;6387551;23;20046;-64
2023/01/05 09:38:29;;;;;;;0.90;0.90;;;13.80;1.00;;;;;;6389760;23;20048;-66
2023/01/05 09:41:25;;;;;;;0.63;0.63;;;13.80;1.00;;;;;;6387029;23;20052;-66
2023/01/05 09:43:59;;;;;;;0.90;0.90;;;13.80;1.00;;;;;;6389729;23;19997;-64
2023/01/05 09:46:41;;;;;;;0.70;0.70;;;13.80;1.00;;;;;;6387610;23;20231;-65
2023/01/05 09:49:17;;;;;;;0.90;0.90;;;13.90;1.00;;;;;;6387340;23;20001;-63
2023/01/05 09:52:01;;;;;;;0.77;0.77;;;13.90;1.00;;;;;;6411584;23;20026;-66
2023/01/05 09:54:33;;;;;;;0.82;0.82;;;14.00;1.00;;;;;;6412751;23;20003;-66
2023/01/05 09:57:13;;;;;;;0.70;0.70;;;14.10;1.00;;;;;;6387735;23;20004;-66
2023/01/05 09:59:57;;;;;;;0.60;0.60;;;14.10;1.00;;;;;;6387664;23;19993;-64
2023/01/05 10:02:34;;;;;;;;;;;14.30;1.00;;;;;;6435698;22;20005;-63
2023/01/05 10:05:06;;;;;;;0.80;0.80;;;14.40;1.00;;;;;;6389396;23;19949;-68
2023/01/05 10:07:56;;;;;;;1.58;0.80;;;14.40;1.00;;;;;;6375778;23;20694;-66
2023/01/05 10:10:30;;;;;;;1.73;0.60;;;14.40;1.00;;;;;;6412170;23;20080;-66
2023/01/05 10:13:05;;;;;;;;;;;14.30;1.00;;;;;;6412458;23;20485;-66
2023/01/05 10:15:50;;;;;;;0.82;0.82;;;14.40;1.00;;;;;;6388063;23;19936;-64
2023/01/05 10:18:26;;;;;;;0.70;0.70;;;14.40;1.00;;;;;;6412307;23;20056;-64
2023/01/05 10:21:04;;;;;;;0.68;0.68;;;14.40;1.00;;;;;;6386752;23;20064;-65
2023/01/05 10:23:59;;;;;;;0.60;0.60;;;14.40;1.00;;;;;;6412168;23;20035;-64
2023/01/05 10:26:43;;;;;;;0.70;0.70;;;14.40;1.00;;;;;;6412113;23;20005;-70
2023/01/05 10:29:40;;;;;;;1.70;0.80;;;14.30;1.00;;;;;;6411984;23;20340;-63
2023/01/05 10:32:50;;;;;;;1.00;1.00;;;14.40;1.00;;;;;;6375025;23;19993;-62
2023/01/05 10:35:46;;;;;;;0.85;0.85;;;14.60;1.00;;;;;;6358808;23;20004;-67
2023/01/05 10:38:51;;;;;;;0.93;0.90;;;14.60;1.00;;;;;;6436034;23;20007;-65
2023/01/05 10:41:40;;;;;;;0.70;0.70;;;14.60;1.00;;;;;;6386683;23;20011;-64
2023/01/05 10:44:45;;;;;;;0.95;0.90;;;14.60;1.00;;;;;;6412110;23;20003;-65
2023/01/05 10:47:16;;;;;;;0.93;0.88;;;14.60;1.00;;;;;;6390083;23;20064;-66
2023/01/05 10:49:49;;;;;;;0.90;0.90;;;13.90;1.00;;;;;;6386423;23;20489;-70
2023/01/05 10:52:21;;;;;;;1.00;0.90;;;12.20;99.90;;;;;;6387694;23;19997;-68
2023/01/05 10:54:57;;;;;;;1.05;0.80;;;11.10;99.90;;;;;;6362091;23;20054;-65
2023/01/05 10:57:29;;;;;;;2.47;0.65;;;10.80;99.90;;;;;;6411031;23;20052;-67
2023/01/05 11:00:16;;;;;;;0.80;0.75;;;10.60;99.90;;;;;;6447997;23;20003;-66
2023/01/05 11:02:59;;;;;;;1.20;0.80;;;10.70;99.90;;;;;;6413445;22;20205;-68
2023/01/05 11:05:44;;;;;;;1.48;1.10;;;10.80;99.90;;;;;;6409084;22;20013;-67
2023/01/05 11:08:27;;;;;;;1.05;0.90;;;10.80;99.90;;;;;;6401299;23;20024;-66
2023/01/05 11:11:09;;;;;;;1.30;1.07;;;10.70;99.90;;;;;;6440356;23;20011;-68
2023/01/05 11:13:50;;;;;;;2.10;0.77;;;10.80;99.90;;;;;;6390012;23;20004;-68
2023/01/05 11:16:22;;;;;;;1.55;0.85;;;11.00;99.90;;;;;;6438419;23;20306;-70
2023/01/05 11:19:19;;;;;;;1.67;1.00;;;11.20;99.90;;;;;;6439598;23;20009;-67
2023/01/05 11:21:50;;;;;;;0.63;0.60;;;11.20;99.90;;;;;;6388950;23;19997;-67
2023/01/05 11:24:30;;;;;;;1.25;0.70;;;11.80;99.90;;;;;;6391040;23;20001;-66
2023/01/05 11:27:22;;;;;;;1.02;0.75;;;12.20;99.90;;;;;;6413935;23;20005;-64
2023/01/05 11:30:19;;;;;;;2.40;1.10;;;12.20;99.90;;;;;;6389495;23;19997;-65
2023/01/05 11:32:51;;;;;;;1.05;0.77;;;12.30;99.90;;;;;;6390792;23;20011;-65
2023/01/05 11:35:39;;;;;;;0.70;0.70;;;12.80;99.90;;;;;;6412613;23;20004;-66
2023/01/05 11:38:25;;;;;;;1.13;1.02;;;13.30;99.90;;;;;;6389058;23;20457;-64
2023/01/05 11:41:01;;;;;;;0.80;0.80;;;13.70;99.90;;;;;;6413734;23;20007;-64
2023/01/05 11:43:37;;;;;;;1.38;1.27;;;13.70;99.90;;;;;;6364311;23;20001;-66
2023/01/05 11:46:08;;;;;;;2.25;0.77;;;13.80;99.90;;;;;;6412572;23;20024;-66
2023/01/05 11:48:55;;;;;;;0.70;0.70;;;13.70;99.90;;;;;;6438449;23;20001;-64
2023/01/05 11:51:37;;;;;;;0.80;0.80;;;14.00;99.90;;;;;;6412531;23;20112;-64
2023/01/05 11:54:31;;;;;;;3.25;1.08;;;14.50;99.90;;;;;;6413018;23;20005;-63
2023/01/05 11:57:16;;;;;;;0.95;0.70;;;14.90;99.90;;;;;;6386144;23;19993;-65
2023/01/05 11:59:54;;;;;;;0.88;0.88;;;14.60;99.90;;;;;;6413020;23;20052;-64
2023/01/05 12:03:14;;;;;;;0.80;0.80;;;15.20;89.60;;;;;;6387012;23;20008;-69
2023/01/05 12:05:53;;;;;;;0.75;0.75;;;15.00;92.10;;;;;;6320371;23;20016;-65
2023/01/05 12:08:42;;;;;;;0.98;0.98;;;15.50;68.60;;;;;;6418641;23;20000;-65
2023/01/05 12:11:21;;;;;;;1.10;1.10;;;16.00;76.40;;;;;;6393157;23;20007;-68
2023/01/05 12:14:20;;;;;;;1.30;1.08;;;16.40;96.40;;;;;;6419069;23;20027;-64
2023/01/05 12:17:07;;;;;;;0.88;0.88;;;16.50;99.90;;;;;;6429658;23;20007;-67
2023/01/05 12:19:58;;;;;;;0.80;0.80;;;16.70;99.90;;;;;;6421111;23;20048;-63
2023/01/05 12:22:44;;;;;;;1.23;1.13;;;16.70;99.90;;;;;;6443320;23;20000;-67
2023/01/05 12:25:26;;;;;;;1.13;1.02;;;17.00;99.90;;;;;;6443979;23;20016;-69
2023/01/05 12:28:24;;;;;;;0.90;0.90;;;16.70;99.90;;;;;;6393995;23;20007;-67
2023/01/05 12:31:08;;;;;;;1.50;1.00;;;15.50;99.90;;;;;;6418376;23;20007;-66
2023/01/05 12:34:12;;;;;;;1.20;1.10;;;14.60;1.00;;;;;;6422430;23;19992;-68
2023/01/05 12:37:04;;;;;;;2.83;1.08;;;13.60;20.80;;;;;;6443982;23;20000;-65
2023/01/05 12:40:07;;;;;;;1.13;0.80;;;13.40;47.50;;;;;;6421801;23;20072;-65
2023/01/05 12:43:01;;;;;;;0.98;0.98;;;13.20;37.70;;;;;;6443951;23;20000;-66
2023/01/05 12:45:56;;;;;;;2.05;0.82;;;12.70;99.90;;;;;;6390510;23;20012;-68
2023/01/05 12:48:34;;;;;;;0.80;0.80;;;12.60;99.90;;;;;;6421470;23;19988;-66
2023/01/05 12:51:18;;;;;;;1.10;1.00;;;12.80;99.90;;;;;;6393394;23;20000;-64
2023/01/05 12:54:01;;;;;;;0.82;0.82;;;12.90;99.90;;;;;;6419608;23;19999;-68
2023/01/05 12:56:40;;;;;;;3.00;1.92;;;13.10;1.00;;;;;;6385850;23;20004;-68
2023/01/05 12:59:13;;;;;;;1.27;1.10;;;13.00;1.00;;;;;;6386968;23;20059;-65
2023/01/05 13:01:56;;;;;;;1.27;1.17;;;12.90;1.00;;;;;;6392739;23;20004;-65
2023/01/05 13:04:54;;;;;;;1.30;0.82;;;12.70;1.00;;;;;;6377925;23;20012;-64
2023/01/05 13:07:44;;;;;;;0.57;0.50;;;12.60;1.00;;;;;;6388248;23;20330;-67
2023/01/05 13:10:26;;;;;;;1.83;1.10;;;12.50;1.00;;;;;;6390429;23;20000;-65
2023/01/05 13:13:13;;;;;;;2.25;1.50;;;12.90;1.00;;;;;;6389639;23;20155;-66
2023/01/05 13:16:20;;;;;;;1.40;1.30;;;13.00;1.00;;;;;;6413029;23;20492;-67
2023/01/05 13:19:13;;;;;;;2.15;1.38;;;13.20;1.00;;;;;;6391360;23;20490;-67
2023/01/05 13:21:46;;;;;;;2.97;1.38;;;13.30;3.70;;;;;;6362266;23;19997;-69
2023/01/05 13:24:26;;;;;;;0.80;0.80;;;13.10;22.70;;;;;;6363628;23;20009;-68
2023/01/05 13:26:59;;;;;;;0.75;0.75;;;12.90;17.50;;;;;;6363573;23;20009;-67
2023/01/05 13:29:38;;;;;;;1.70;1.00;;;13.10;15.50;;;;;;6363012;23;20001;-65
2023/01/05 13:32:37;;;;;;;1.75;1.00;;;12.90;28.10;;;;;;6363348;23;20385;-67
2023/01/05 13:35:28;;;;;;;2.15;1.10;;;12.80;8.70;;;;;;6363424;23;20007;-66
2023/01/05 13:38:13;;;;;;;0.90;0.90;;;12.70;13.80;;;;;;6363776;23;20370;-65
2023/01/05 13:41:13;;;;;;;1.10;1.05;;;13.00;11.10;;;;;;6363606;23;20030;-67
2023/01/05 13:44:06;;;;;;;1.75;1.10;;;13.50;21.00;;;;;;6363028;23;20001;-66
2023/01/05 13:47:09;;;;;;;1.65;1.42;;;13.60;31.60;;;;;;6412700;23;20075;-63
2023/01/05 13:50:05;;;;;;;1.40;0.90;;;13.40;21.60;;;;;;6363049;23;20015;-65
2023/01/05 13:53:08;;;;;;;0.80;0.80;;;13.00;26.20;;;;;;6413522;23;19993;-65
2023/01/05 13:55:53;;;;;;;3.40;0.90;;;12.80;25.40;;;;;;6390674;23;20007;-67
2023/01/05 13:58:40;;;;;;;1.27;1.15;;;12.70;20.10;;;;;;6364072;23;20001;-63
2023/01/05 14:01:20;;;;;;;2.17;1.45;;;12.60;22.80;;;;;;6390121;23;20040;-66
2023/01/05 14:03:55;;;;;;;1.75;1.08;;;12.40;19.50;;;;;;6362929;23;20009;-67
2023/01/05 14:06:35;;;;;;;2.05;0.98;;;12.40;15.90;;;;;;6404868;23;20008;-64
2023/01/05 14:09:18;;;;;;;4.15;1.33;;;12.30;11.10;;;;;;6395908;23;20293;-64
2023/01/05 14:12:15;;;;;;;1.50;1.05;;;12.10;1.20;;;;;;6421067;23;20004;-63
2023/01/05 14:15:11;;;;;;;1.73;1.23;;;12.00;1.00;;;;;;6407579;23;20063;-67
2023/01/05 14:17:54;;;;;;;2.65;1.30;;;11.90;1.00;;;;;;6395046;23;20237;-65
2023/01/05 14:20:36;;;;;;;1.20;1.08;;;11.80;1.00;;;;;;6394794;23;20001;-66
2023/01/05 14:23:22;;;;;;;3.00;1.50;;;11.70;1.00;;;;;;6393741;23;20248;-65